Owo View — VRBZ8 — position and weather

sailwx.info

Track history (hours):
 
Tides and Currents Weather Stations Pressure Air Temp Water Temp Dewpoint Dewpoint Depression Visibility Wind Speed Wind Dir Waves Ship Positions

Owo View

Last reported at 2018-Jan-21 16:30 UTC. Time now 2018-Jan-21 16:36 UTC.
Position N 31°38' E 121°14'.

Length 143 m; draft 8 m.

Type: Cargo ship. MMSI: 477364240.

Date/timePositionNaut miles runAvg speedWind from/ knotsBaromVisibWave heightAir tempDewpointWater temp
2018-Jan-21 16:30N 31°38' E 121°14'0 0.0
2018-Jan-21 16:00N 31°38' E 121°14'0 0.0
2018-Jan-21 15:27N 31°38' E 121°14'0 0.0
2018-Jan-21 14:57N 31°38' E 121°14'0 0.0
2018-Jan-21 14:30N 31°38' E 121°14'0 0.0
2018-Jan-21 14:00N 31°38' E 121°14'0 0.0
2018-Jan-21 13:27N 31°38' E 121°14'0 0.0
2018-Jan-21 13:00N 31°38' E 121°14'0 0.0
2018-Jan-21 12:30N 31°38' E 121°14'0 0.0
2018-Jan-21 11:45N 31°38' E 121°14'0 0.0
2018-Jan-21 11:27N 31°38' E 121°14'0 0.0
2018-Jan-21 11:00N 31°38' E 121°14'0 0.0
2018-Jan-21 10:30N 31°38' E 121°14'0 0.0
2018-Jan-21 09:57N 31°38' E 121°14'0 0.0
2018-Jan-21 09:30N 31°38' E 121°14'0 0.0
2018-Jan-21 09:00N 31°38' E 121°14'0 0.0
2018-Jan-21 08:27N 31°38' E 121°14'0 0.0
2018-Jan-21 07:57N 31°38' E 121°14'0 0.0
2018-Jan-21 07:27N 31°38' E 121°14'0 0.0
2018-Jan-21 07:00N 31°38' E 121°14'0 0.0
2018-Jan-21 06:30N 31°38' E 121°14'0 0.0
2018-Jan-21 06:00N 31°38' E 121°14'0 0.0
2018-Jan-21 05:27N 31°38' E 121°14'0 0.0
2018-Jan-21 05:00N 31°38' E 121°14'0 0.0
2018-Jan-21 04:27N 31°38' E 121°14'0 0.0
2018-Jan-21 03:54N 31°38' E 121°14'0 0.0
2018-Jan-21 03:30N 31°38' E 121°14'0 0.0
2018-Jan-21 02:57N 31°38' E 121°14'0 0.1
2018-Jan-21 02:30N 31°38' E 121°14'3 5.1
2018-Jan-21 02:00N 31°37' E 121°16'612.4
2018-Jan-21 01:30N 31°32' E 121°21'611.9
2018-Jan-21 01:00N 31°29' E 121°27'4 7.4
2018-Jan-21 00:30N 31°26' E 121°30'4 7.3
2018-Jan-20 23:59N 31°24' E 121°34'1110.3
2018-Jan-20 22:57N 31°19' E 121°44'4 9.4
2018-Jan-20 22:30N 31°17' E 121°49'5 8.8
2018-Jan-20 21:56N 31°16' E 121°55'4 8.7
2018-Jan-20 21:29N 31°15' E 121°59'4 8.2
2018-Jan-20 21:00N 31°14' E 122°04'7 9.3
2018-Jan-20 20:14N 31°11' E 122°11'312.6
2018-Jan-20 19:59N 31°09' E 122°14'612.4
2018-Jan-20 19:30N 31°06' E 122°20'6 9.2
2018-Jan-20 18:48N 31°07' E 122°28'  
2018-Jan-18 14:12N 34°04' E 137°41'314.9
2018-Jan-18 14:00N 34°05' E 137°44'814.6
2018-Jan-18 13:29N 34°08' E 137°53'713.8
2018-Jan-18 13:00N 34°11' E 138°00'713.5
2018-Jan-18 12:30N 34°14' E 138°07'713.4
2018-Jan-18 12:00N 34°17' E 138°15'713.2
2018-Jan-18 11:29N 34°20' E 138°22'612.6
2018-Jan-18 10:59N 34°22' E 138°29'712.4
2018-Jan-18 10:26N 34°25' E 138°37'511.9
2018-Jan-18 10:00N 34°27' E 138°42'612.5
2018-Jan-18 09:30N 34°30' E 138°49'713.8
2018-Jan-18 09:01N 34°33' E 138°57'714.3
2018-Jan-18 08:30N 34°37' E 139°04'915.2
2018-Jan-18 07:55N 34°44' E 139°11'615.5
2018-Jan-18 07:30N 34°49' E 139°16'815.4
2018-Jan-18 07:00N 34°54' E 139°23'815.0
2018-Jan-18 06:30N 34°58' E 139°30'815.3
2018-Jan-18 06:00N 35°02' E 139°38'815.3
2018-Jan-18 05:30N 35°08' E 139°45'713.6
2018-Jan-18 05:00N 35°14' E 139°46'612.2
2018-Jan-18 04:30N 35°20' E 139°43'612.0
2018-Jan-18 04:00N 35°25' E 139°45'714.0
2018-Jan-18 03:31N 35°30' E 139°51'611.8
2018-Jan-18 03:00N 35°35' E 139°47'1 2.0
2018-Jan-18 02:30N 35°36' E 139°47'0 0.0
2018-Jan-18 01:59N 35°36' E 139°47'0 0.0
2018-Jan-18 01:23N 35°36' E 139°47'0 0.0
2018-Jan-18 00:44N 35°36' E 139°47'0 0.0
2018-Jan-17 23:59N 35°36' E 139°47'0 0.0
2018-Jan-17 23:56N 35°36' E 139°47'  
2018-Jan-12 15:00N 33°48' E 131°29'714.5
2018-Jan-12 14:30N 33°49' E 131°21'714.7
2018-Jan-12 14:00N 33°51' E 131°12'714.7
2018-Jan-12 13:30N 33°55' E 131°05'612.2
2018-Jan-12 13:00N 33°58' E 130°58'510.4
2018-Jan-12 12:30N 33°54' E 130°54'510.6
2018-Jan-12 12:00N 33°59' E 130°52'713.5
2018-Jan-12 11:30N 34°02' E 130°45'816.4
2018-Jan-12 11:01N 34°02' E 130°35'815.6
2018-Jan-12 10:30N 33°59' E 130°26'816.0
2018-Jan-12 10:01N 33°55' E 130°18'815.5
2018-Jan-12 09:31N 33°50' E 130°11'815.8
2018-Jan-12 09:01N 33°46' E 130°03'815.8
2018-Jan-12 08:30N 33°41' E 129°55'  
Track history (hours):
 
Tides and Currents Weather Stations Pressure Air Temp Water Temp Dewpoint Dewpoint Depression Visibility Wind Speed Wind Dir Waves Ship Positions

Owo View

Last reported at 2018-Jan-21 16:30 UTC. Time now 2018-Jan-21 16:36 UTC.
Position N 31°38' E 121°14'.

Length 143 m; draft 8 m.

Type: Cargo ship. MMSI: 477364240.

Date/timePositionNaut miles runAvg speedWind from/ knotsBaromVisibWave heightAir tempDewpointWater temp
2018-Jan-21 16:30N 31°38' E 121°14'0 0.0
2018-Jan-21 16:00N 31°38' E 121°14'0 0.0
2018-Jan-21 15:27N 31°38' E 121°14'0 0.0
2018-Jan-21 14:57N 31°38' E 121°14'0 0.0
2018-Jan-21 14:30N 31°38' E 121°14'0 0.0
2018-Jan-21 14:00N 31°38' E 121°14'0 0.0
2018-Jan-21 13:27N 31°38' E 121°14'0 0.0
2018-Jan-21 13:00N 31°38' E 121°14'0 0.0
2018-Jan-21 12:30N 31°38' E 121°14'0 0.0
2018-Jan-21 11:45N 31°38' E 121°14'0 0.0
2018-Jan-21 11:27N 31°38' E 121°14'0 0.0
2018-Jan-21 11:00N 31°38' E 121°14'0 0.0
2018-Jan-21 10:30N 31°38' E 121°14'0 0.0
2018-Jan-21 09:57N 31°38' E 121°14'0 0.0
2018-Jan-21 09:30N 31°38' E 121°14'0 0.0
2018-Jan-21 09:00N 31°38' E 121°14'0 0.0
2018-Jan-21 08:27N 31°38' E 121°14'0 0.0
2018-Jan-21 07:57N 31°38' E 121°14'0 0.0
2018-Jan-21 07:27N 31°38' E 121°14'0 0.0
2018-Jan-21 07:00N 31°38' E 121°14'0 0.0
2018-Jan-21 06:30N 31°38' E 121°14'0 0.0
2018-Jan-21 06:00N 31°38' E 121°14'0 0.0
2018-Jan-21 05:27N 31°38' E 121°14'0 0.0
2018-Jan-21 05:00N 31°38' E 121°14'0 0.0
2018-Jan-21 04:27N 31°38' E 121°14'0 0.0
2018-Jan-21 03:54N 31°38' E 121°14'0 0.0
2018-Jan-21 03:30N 31°38' E 121°14'0 0.0
2018-Jan-21 02:57N 31°38' E 121°14'0 0.1
2018-Jan-21 02:30N 31°38' E 121°14'3 5.1
2018-Jan-21 02:00N 31°37' E 121°16'612.4
2018-Jan-21 01:30N 31°32' E 121°21'611.9
2018-Jan-21 01:00N 31°29' E 121°27'4 7.4
2018-Jan-21 00:30N 31°26' E 121°30'4 7.3
2018-Jan-20 23:59N 31°24' E 121°34'1110.3
2018-Jan-20 22:57N 31°19' E 121°44'4 9.4
2018-Jan-20 22:30N 31°17' E 121°49'5 8.8
2018-Jan-20 21:56N 31°16' E 121°55'4 8.7
2018-Jan-20 21:29N 31°15' E 121°59'4 8.2
2018-Jan-20 21:00N 31°14' E 122°04'7 9.3
2018-Jan-20 20:14N 31°11' E 122°11'312.6
2018-Jan-20 19:59N 31°09' E 122°14'612.4
2018-Jan-20 19:30N 31°06' E 122°20'6 9.2
2018-Jan-20 18:48N 31°07' E 122°28'  
2018-Jan-18 14:12N 34°04' E 137°41'314.9
2018-Jan-18 14:00N 34°05' E 137°44'814.6
2018-Jan-18 13:29N 34°08' E 137°53'713.8
2018-Jan-18 13:00N 34°11' E 138°00'713.5
2018-Jan-18 12:30N 34°14' E 138°07'713.4
2018-Jan-18 12:00N 34°17' E 138°15'713.2
2018-Jan-18 11:29N 34°20' E 138°22'612.6
2018-Jan-18 10:59N 34°22' E 138°29'712.4
2018-Jan-18 10:26N 34°25' E 138°37'511.9
2018-Jan-18 10:00N 34°27' E 138°42'612.5
2018-Jan-18 09:30N 34°30' E 138°49'713.8
2018-Jan-18 09:01N 34°33' E 138°57'714.3
2018-Jan-18 08:30N 34°37' E 139°04'915.2
2018-Jan-18 07:55N 34°44' E 139°11'615.5
2018-Jan-18 07:30N 34°49' E 139°16'815.4
2018-Jan-18 07:00N 34°54' E 139°23'815.0
2018-Jan-18 06:30N 34°58' E 139°30'815.3
2018-Jan-18 06:00N 35°02' E 139°38'815.3
2018-Jan-18 05:30N 35°08' E 139°45'713.6
2018-Jan-18 05:00N 35°14' E 139°46'612.2
2018-Jan-18 04:30N 35°20' E 139°43'612.0
2018-Jan-18 04:00N 35°25' E 139°45'714.0
2018-Jan-18 03:31N 35°30' E 139°51'611.8
2018-Jan-18 03:00N 35°35' E 139°47'1 2.0
2018-Jan-18 02:30N 35°36' E 139°47'0 0.0
2018-Jan-18 01:59N 35°36' E 139°47'0 0.0
2018-Jan-18 01:23N 35°36' E 139°47'0 0.0
2018-Jan-18 00:44N 35°36' E 139°47'0 0.0
2018-Jan-17 23:59N 35°36' E 139°47'0 0.0
2018-Jan-17 23:56N 35°36' E 139°47'  
2018-Jan-12 15:00N 33°48' E 131°29'714.5
2018-Jan-12 14:30N 33°49' E 131°21'714.7
2018-Jan-12 14:00N 33°51' E 131°12'714.7
2018-Jan-12 13:30N 33°55' E 131°05'612.2
2018-Jan-12 13:00N 33°58' E 130°58'510.4
2018-Jan-12 12:30N 33°54' E 130°54'510.6
2018-Jan-12 12:00N 33°59' E 130°52'713.5
2018-Jan-12 11:30N 34°02' E 130°45'816.4
2018-Jan-12 11:01N 34°02' E 130°35'815.6
2018-Jan-12 10:30N 33°59' E 130°26'816.0
2018-Jan-12 10:01N 33°55' E 130°18'815.5
2018-Jan-12 09:31N 33°50' E 130°11'815.8
2018-Jan-12 09:01N 33°46' E 130°03'815.8
2018-Jan-12 08:30N 33°41' E 129°55'  

Dump ship's entire track history